createdAt,value
2023-02-28T00:00:37.735Z,3.13
2023-02-28T00:03:04.473Z,2.83
2023-02-28T00:05:31.644Z,3.00
2023-02-28T00:07:58.297Z,2.92
2023-02-28T00:10:27.962Z,3.20
2023-02-28T00:13:03.357Z,2.88
2023-02-28T00:15:29.825Z,3.15
2023-02-28T00:17:56.260Z,3.00
2023-02-28T00:20:22.860Z,4.15
2023-02-28T00:22:54.760Z,3.25
2023-02-28T00:27:49.570Z,3.30
2023-02-28T00:30:19.396Z,3.22
2023-02-28T00:32:46.305Z,3.20
2023-02-28T00:35:13.852Z,3.30
2023-02-28T00:37:41.164Z,3.20
2023-02-28T00:40:08.931Z,3.50
2023-02-28T00:42:36.413Z,3.17
2023-02-28T00:45:05.817Z,3.10
2023-02-28T00:47:33.253Z,2.73
2023-02-28T00:50:01.175Z,3.30
2023-02-28T00:52:27.682Z,3.40
2023-02-28T00:54:54.372Z,3.17
2023-02-28T00:57:20.952Z,3.93
2023-02-28T00:59:48.030Z,3.60
2023-02-28T01:02:15.006Z,3.27
2023-02-28T01:04:41.938Z,3.13
2023-02-28T01:07:08.557Z,3.03
2023-02-28T01:09:35.053Z,3.72
2023-02-28T01:12:01.464Z,3.58
2023-02-28T01:14:28.285Z,3.50
2023-02-28T01:16:54.799Z,3.20
2023-02-28T01:19:24.180Z,2.83
2023-02-28T01:21:50.648Z,3.70
2023-02-28T01:24:17.044Z,4.00
2023-02-28T01:26:43.460Z,7.07
2023-02-28T01:29:10.177Z,6.20
2023-02-28T01:31:37.397Z,4.78
2023-02-28T01:34:04.472Z,8.10
2023-02-28T01:36:31.473Z,6.77
2023-02-28T01:38:57.954Z,3.75
2023-02-28T01:41:27.649Z,3.83
2023-02-28T01:44:04.331Z,3.20
2023-02-28T01:46:32.671Z,2.93
2023-02-28T01:49:14.169Z,3.73
2023-02-28T01:51:51.704Z,3.38
2023-02-28T01:54:24.100Z,2.97
2023-02-28T01:57:04.629Z,3.53
2023-02-28T01:59:41.538Z,3.90
2023-02-28T02:02:08.252Z,4.87
2023-02-28T02:05:03.689Z,3.58
2023-02-28T02:07:37.124Z,3.97
2023-02-28T02:10:06.711Z,3.33
2023-02-28T02:12:48.805Z,4.50
2023-02-28T02:15:25.098Z,4.10
2023-02-28T02:17:57.378Z,4.33
2023-02-28T02:20:33.518Z,4.63
2023-02-28T02:23:21.563Z,3.43
2023-02-28T02:26:03.464Z,3.43
2023-02-28T02:28:48.323Z,4.68
2023-02-28T02:31:30.231Z,4.27
2023-02-28T02:34:21.889Z,4.27
2023-02-28T02:37:17.539Z,3.72
2023-02-28T02:39:58.132Z,4.53
2023-02-28T02:42:35.801Z,4.93
2023-02-28T02:45:27.075Z,5.23
2023-02-28T02:47:54.489Z,4.03
2023-02-28T02:50:28.421Z,4.97
2023-02-28T02:53:03.929Z,4.90
2023-02-28T02:55:35.342Z,4.70
2023-02-28T02:58:10.387Z,5.25
2023-02-28T03:00:43.124Z,4.70
2023-02-28T03:03:12.049Z,4.77
2023-02-28T03:05:59.437Z,3.93
2023-02-28T03:08:30.639Z,3.97
2023-02-28T03:11:00.649Z,4.97
2023-02-28T03:14:04.037Z,4.23
2023-02-28T03:16:37.493Z,5.53
2023-02-28T03:19:11.247Z,5.00
2023-02-28T03:22:01.692Z,4.97
2023-02-28T03:25:09.989Z,5.03
2023-02-28T03:27:43.366Z,5.50
2023-02-28T03:30:25.875Z,4.90
2023-02-28T03:33:09.237Z,4.93
2023-02-28T03:35:45.754Z,5.00
2023-02-28T03:38:26.459Z,6.03
2023-02-28T03:41:11.571Z,4.80
2023-02-28T03:43:44.182Z,5.23
2023-02-28T03:46:15.381Z,5.70
2023-02-28T03:48:53.951Z,6.05
2023-02-28T03:51:23.967Z,6.40
2023-02-28T03:53:55.877Z,5.40
2023-02-28T03:59:07.733Z,5.70
2023-02-28T04:01:37.798Z,4.73
2023-02-28T04:04:05.490Z,6.10
2023-02-28T04:06:33.985Z,5.43
2023-02-28T04:09:01.116Z,6.23
2023-02-28T04:11:34.512Z,5.40
2023-02-28T04:14:01.022Z,5.10
2023-02-28T04:16:35.132Z,5.50
2023-02-28T04:19:06.701Z,5.47
2023-02-28T04:21:42.916Z,5.60
2023-02-28T04:24:15.190Z,4.87
2023-02-28T04:26:44.674Z,5.10
2023-02-28T04:29:13.359Z,5.60
2023-02-28T04:31:40.778Z,5.17
2023-02-28T04:34:07.939Z,5.10
2023-02-28T04:36:35.048Z,5.60
2023-02-28T04:39:07.735Z,5.13
2023-02-28T04:41:34.603Z,4.67
2023-02-28T04:44:01.272Z,5.33
2023-02-28T04:46:27.727Z,6.00
2023-02-28T04:48:56.003Z,5.40
2023-02-28T04:51:23.054Z,4.83
2023-02-28T04:53:49.754Z,4.83
2023-02-28T04:56:18.471Z,5.40
2023-02-28T04:58:45.469Z,4.97
2023-02-28T05:01:22.692Z,5.00
2023-02-28T05:03:50.020Z,5.10
2023-02-28T05:06:17.401Z,4.77
2023-02-28T05:08:44.068Z,6.97
2023-02-28T05:11:22.546Z,4.90
2023-02-28T05:13:49.633Z,5.77
2023-02-28T05:16:16.984Z,6.13
2023-02-28T05:18:43.984Z,6.03
2023-02-28T05:21:29.712Z,4.87
2023-02-28T05:23:58.420Z,6.07
2023-02-28T05:26:25.563Z,6.10
2023-02-28T05:28:52.037Z,5.63
2023-02-28T05:31:18.989Z,5.73
2023-02-28T05:33:45.575Z,5.17
2023-02-28T05:36:12.177Z,6.97
2023-02-28T05:38:39.651Z,6.67
2023-02-28T05:41:10.760Z,6.20
2023-02-28T05:43:38.112Z,6.47
2023-02-28T05:46:09.352Z,6.00
2023-02-28T05:48:38.211Z,6.00
2023-02-28T05:51:06.508Z,5.90
2023-02-28T05:53:34.107Z,5.60
2023-02-28T05:56:00.724Z,6.53
2023-02-28T05:58:31.575Z,5.73
2023-02-28T06:01:00.241Z,6.43
2023-02-28T06:03:27.404Z,6.07
2023-02-28T06:05:54.394Z,6.87
2023-02-28T06:08:20.928Z,5.97
2023-02-28T06:10:47.490Z,6.77
2023-02-28T06:13:13.988Z,6.40
2023-02-28T06:15:40.512Z,5.57
2023-02-28T06:18:07.797Z,5.60
2023-02-28T06:20:34.403Z,6.40
2023-02-28T06:23:00.915Z,6.00
2023-02-28T06:25:28.992Z,9.27
2023-02-28T06:27:56.461Z,9.23
2023-02-28T06:30:26.271Z,9.03
2023-02-28T06:32:53.123Z,6.10
2023-02-28T06:35:19.756Z,7.57
2023-02-28T06:37:48.066Z,8.77
2023-02-28T06:40:14.834Z,8.33
2023-02-28T06:42:41.403Z,7.20
2023-02-28T06:45:10.453Z,7.03
2023-02-28T06:47:42.059Z,6.43
2023-02-28T06:50:13.760Z,7.72
2023-02-28T06:52:40.205Z,7.25
2023-02-28T06:55:08.332Z,6.03
2023-02-28T06:57:36.169Z,7.00
2023-02-28T07:00:08.623Z,6.10
2023-02-28T07:02:36.803Z,5.83
2023-02-28T07:05:04.006Z,5.67
2023-02-28T07:07:30.716Z,6.47
2023-02-28T07:09:57.650Z,6.80
2023-02-28T07:12:24.157Z,6.60
2023-02-28T07:14:52.017Z,6.50
2023-02-28T07:17:18.536Z,7.80
2023-02-28T07:19:45.043Z,8.70
2023-02-28T07:22:11.633Z,6.97
2023-02-28T07:24:39.201Z,6.32
2023-02-28T07:27:06.196Z,7.45
2023-02-28T07:29:32.853Z,7.70
2023-02-28T07:31:59.481Z,6.82
2023-02-28T07:34:26.931Z,6.80
2023-02-28T07:36:55.098Z,7.68
2023-02-28T07:39:22.789Z,7.28
2023-02-28T07:41:49.259Z,7.22
2023-02-28T07:44:16.123Z,7.07
2023-02-28T07:46:42.702Z,7.50
2023-02-28T07:49:09.223Z,7.28
2023-02-28T07:51:35.704Z,6.70
2023-02-28T07:54:02.471Z,6.32
2023-02-28T07:56:29.277Z,6.50
2023-02-28T07:58:56.205Z,6.10
2023-02-28T08:01:23.807Z,6.97
2023-02-28T08:03:50.393Z,6.30
2023-02-28T08:06:27.322Z,7.10
2023-02-28T08:08:54.327Z,7.60
2023-02-28T08:11:21.285Z,6.57
2023-02-28T08:13:47.732Z,6.30
2023-02-28T08:16:18.601Z,7.65
2023-02-28T08:18:46.328Z,5.85
2023-02-28T08:21:13.117Z,6.15
2023-02-28T08:23:42.730Z,6.57
2023-02-28T08:26:09.332Z,5.72
2023-02-28T08:28:35.927Z,6.50
2023-02-28T08:31:07.612Z,6.15
2023-02-28T08:33:34.491Z,6.55
2023-02-28T08:36:03.036Z,6.20
2023-02-28T08:38:29.596Z,6.35
2023-02-28T08:41:08.213Z,6.30
2023-02-28T08:43:35.548Z,6.60
2023-02-28T08:46:02.145Z,6.55
2023-02-28T08:48:31.278Z,5.47
2023-02-28T08:51:08.514Z,5.80
2023-02-28T08:53:36.070Z,5.80
2023-02-28T08:56:08.654Z,6.13
2023-02-28T08:58:35.871Z,5.13
2023-02-28T09:01:09.483Z,5.45
2023-02-28T09:03:36.348Z,5.57
2023-02-28T09:06:10.043Z,6.20
2023-02-28T09:08:36.986Z,6.65
2023-02-28T09:11:03.928Z,5.93
2023-02-28T09:13:38.075Z,5.72
2023-02-28T09:16:06.846Z,6.25
2023-02-28T09:18:37.191Z,6.30
2023-02-28T09:21:15.144Z,5.95
2023-02-28T09:23:42.927Z,5.47
2023-02-28T09:26:14.699Z,6.28
2023-02-28T09:28:41.306Z,6.50
2023-02-28T09:31:07.814Z,6.60
2023-02-28T09:33:35.299Z,6.28
2023-02-28T09:36:04.820Z,6.15
2023-02-28T09:38:31.401Z,6.25
2023-02-28T09:41:01.559Z,6.20
2023-02-28T09:43:38.675Z,7.25
2023-02-28T09:46:12.599Z,7.93
2023-02-28T09:48:43.936Z,6.57
2023-02-28T09:51:39.082Z,6.20
2023-02-28T09:54:05.997Z,7.07
2023-02-28T09:56:38.454Z,6.75
2023-02-28T09:59:11.644Z,7.40
2023-02-28T10:01:55.899Z,7.25
2023-02-28T10:04:58.958Z,6.70
2023-02-28T10:07:56.055Z,6.25
2023-02-28T10:10:25.393Z,6.72
2023-02-28T10:12:59.740Z,6.68
2023-02-28T10:15:30.645Z,5.85
2023-02-28T10:18:09.328Z,5.73
2023-02-28T10:20:40.988Z,7.90
2023-02-28T10:23:29.644Z,6.28
2023-02-28T10:26:13.487Z,6.30
2023-02-28T10:28:40.603Z,6.10
2023-02-28T10:31:15.610Z,7.20
2023-02-28T10:33:42.177Z,6.30
2023-02-28T10:36:14.897Z,6.20
2023-02-28T10:38:47.016Z,6.55
2023-02-28T10:41:19.336Z,7.20
2023-02-28T10:43:48.443Z,6.47
2023-02-28T10:46:26.847Z,6.38
2023-02-28T10:49:12.797Z,6.03
2023-02-28T10:51:41.228Z,6.32
2023-02-28T10:54:17.557Z,6.28
2023-02-28T10:56:44.080Z,6.50
2023-02-28T10:59:16.235Z,8.43
2023-02-28T11:01:49.939Z,7.90
2023-02-28T11:04:20.720Z,7.97
2023-02-28T11:06:47.868Z,7.20
2023-02-28T11:09:52.545Z,8.52
2023-02-28T11:12:47.109Z,7.10
2023-02-28T11:15:25.155Z,7.07
2023-02-28T11:18:05.753Z,8.38
2023-02-28T11:20:34.785Z,7.43
2023-02-28T11:23:05.888Z,8.80
2023-02-28T11:25:39.114Z,7.97
2023-02-28T11:28:25.868Z,7.57
2023-02-28T11:31:01.435Z,7.05
2023-02-28T11:33:30.379Z,7.25
2023-02-28T11:36:02.529Z,7.38
2023-02-28T11:38:29.113Z,8.50
2023-02-28T11:41:12.461Z,8.88
2023-02-28T11:44:07.888Z,6.72
2023-02-28T11:46:45.947Z,7.85
2023-02-28T11:49:46.415Z,7.47
2023-02-28T11:52:42.234Z,7.97
2023-02-28T11:55:17.670Z,6.70
2023-02-28T11:58:12.401Z,7.90
2023-02-28T12:01:14.168Z,6.97
2023-02-28T12:04:02.926Z,6.50
2023-02-28T12:06:33.180Z,7.68
2023-02-28T12:09:27.486Z,7.57
2023-02-28T12:12:15.596Z,7.78
2023-02-28T12:15:03.987Z,7.75
2023-02-28T12:17:48.880Z,8.23
2023-02-28T12:20:42.104Z,7.50
2023-02-28T12:23:44.628Z,9.70
2023-02-28T12:26:17.134Z,8.25
2023-02-28T12:29:13.701Z,7.43
2023-02-28T12:31:48.449Z,7.18
2023-02-28T12:34:22.126Z,7.70
2023-02-28T12:36:51.936Z,8.23
2023-02-28T12:39:48.558Z,6.68
2023-02-28T12:42:31.895Z,7.47
2023-02-28T12:45:11.324Z,8.27
2023-02-28T12:47:41.845Z,7.05
2023-02-28T12:50:12.733Z,7.25
2023-02-28T12:52:58.177Z,7.90
2023-02-28T12:55:45.211Z,8.00
2023-02-28T12:58:21.122Z,7.13
2023-02-28T13:01:13.244Z,6.93
2023-02-28T13:06:36.780Z,8.20
2023-02-28T13:09:14.493Z,7.40
2023-02-28T13:11:43.799Z,7.70
2023-02-28T13:14:23.260Z,7.53
2023-02-28T13:17:18.135Z,7.80
2023-02-28T13:19:53.429Z,7.35
2023-02-28T13:22:42.902Z,8.18
2023-02-28T13:25:35.552Z,7.18
2023-02-28T13:28:05.263Z,7.53
2023-02-28T13:30:59.586Z,8.32
2023-02-28T13:33:39.884Z,7.72
2023-02-28T13:36:18.424Z,7.07
2023-02-28T13:39:02.651Z,7.88
2023-02-28T13:41:30.069Z,8.20
2023-02-28T13:44:27.834Z,9.68
2023-02-28T13:46:57.022Z,9.82
2023-02-28T13:49:23.824Z,10.23
2023-02-28T13:51:52.902Z,7.65
2023-02-28T13:54:29.996Z,7.43
2023-02-28T13:57:24.750Z,6.97
2023-02-28T13:59:53.849Z,7.40
2023-02-28T14:02:55.579Z,10.27
2023-02-28T14:05:26.722Z,8.45
2023-02-28T14:07:58.743Z,9.38
2023-02-28T14:13:00.117Z,8.55
2023-02-28T14:15:34.381Z,7.75
2023-02-28T14:18:14.677Z,7.43
2023-02-28T14:20:41.983Z,7.45
2023-02-28T14:23:19.946Z,7.55
2023-02-28T14:26:09.815Z,8.88
2023-02-28T14:28:50.068Z,9.23
2023-02-28T14:31:36.903Z,8.20
2023-02-28T14:34:28.513Z,8.63
2023-02-28T14:37:01.063Z,7.40
2023-02-28T14:39:31.935Z,8.82
2023-02-28T14:42:04.151Z,7.18
2023-02-28T14:44:31.331Z,9.07
2023-02-28T14:47:06.581Z,9.00
2023-02-28T14:49:46.771Z,7.72
2023-02-28T14:52:25.900Z,8.35
2023-02-28T14:54:57.926Z,8.25
2023-02-28T14:57:32.320Z,8.25
2023-02-28T15:00:21.195Z,8.00
2023-02-28T15:02:47.717Z,8.23
2023-02-28T15:05:14.263Z,8.10
2023-02-28T15:07:40.869Z,8.85
2023-02-28T15:10:29.782Z,7.63
2023-02-28T15:13:07.799Z,8.35
2023-02-28T15:16:00.944Z,9.13
2023-02-28T15:18:58.501Z,8.50
2023-02-28T15:21:30.355Z,7.57
2023-02-28T15:24:04.100Z,8.52
2023-02-28T15:26:35.448Z,8.23
2023-02-28T15:29:15.352Z,8.80
2023-02-28T15:31:56.933Z,8.80
2023-02-28T15:34:45.102Z,12.63
2023-02-28T15:37:31.633Z,9.20
2023-02-28T15:40:06.561Z,7.68
2023-02-28T15:42:34.196Z,9.38
2023-02-28T15:45:03.743Z,8.60
2023-02-28T15:47:31.569Z,9.18
2023-02-28T15:50:08.428Z,8.77
2023-02-28T15:52:43.351Z,7.40
2023-02-28T15:55:22.428Z,8.50
2023-02-28T15:57:54.733Z,7.65
2023-02-28T16:00:25.768Z,8.30
2023-02-28T16:02:54.556Z,7.72
2023-02-28T16:05:32.835Z,8.02
2023-02-28T16:08:16.909Z,8.30
2023-02-28T16:10:43.690Z,7.97
2023-02-28T16:13:14.963Z,8.70
2023-02-28T16:15:44.304Z,7.75
2023-02-28T16:18:13.664Z,8.85
2023-02-28T16:20:41.536Z,8.73
2023-02-28T16:23:14.994Z,8.05
2023-02-28T16:25:44.550Z,8.63
2023-02-28T16:28:20.595Z,8.65
2023-02-28T16:30:48.229Z,7.90
2023-02-28T16:33:14.702Z,7.90
2023-02-28T16:35:41.942Z,27.63
2023-02-28T16:38:09.497Z,8.35
2023-02-28T16:40:38.027Z,8.18
2023-02-28T16:43:16.069Z,7.15
2023-02-28T16:45:42.783Z,7.60
2023-02-28T16:48:15.504Z,7.78
2023-02-28T16:50:42.549Z,8.15
2023-02-28T16:53:09.093Z,7.78
2023-02-28T16:55:36.663Z,8.15
2023-02-28T16:58:03.796Z,8.68
2023-02-28T17:00:33.380Z,7.75
2023-02-28T17:03:04.189Z,7.97
2023-02-28T17:05:40.631Z,7.75
2023-02-28T17:08:07.144Z,7.22
2023-02-28T17:10:36.565Z,8.18
2023-02-28T17:13:14.935Z,7.43
2023-02-28T17:15:45.846Z,9.35
2023-02-28T17:18:17.390Z,10.23
2023-02-28T17:20:44.854Z,9.90
2023-02-28T17:23:11.339Z,8.43
2023-02-28T17:25:37.817Z,9.85
2023-02-28T17:28:06.288Z,12.02
2023-02-28T17:30:35.395Z,10.68
2023-02-28T17:33:02.134Z,9.38
2023-02-28T17:35:28.760Z,13.18
2023-02-28T17:37:55.296Z,10.27
2023-02-28T17:40:24.084Z,11.20
2023-02-28T17:42:57.694Z,10.20
2023-02-28T17:45:24.206Z,8.45
2023-02-28T17:47:51.812Z,8.15
2023-02-28T17:50:21.797Z,7.45
2023-02-28T17:52:51.273Z,9.90
2023-02-28T17:55:19.910Z,8.63
2023-02-28T17:57:48.370Z,7.13
2023-02-28T18:00:18.323Z,8.40
2023-02-28T18:02:45.263Z,8.52
2023-02-28T18:05:12.289Z,8.98
2023-02-28T18:07:39.647Z,8.43
2023-02-28T18:10:08.898Z,8.60
2023-02-28T18:12:35.454Z,8.20
2023-02-28T18:15:02.032Z,7.95
2023-02-28T18:17:28.477Z,8.38
2023-02-28T18:19:54.956Z,7.85
2023-02-28T18:22:21.532Z,7.90
2023-02-28T18:24:49.008Z,8.57
2023-02-28T18:27:15.555Z,7.82
2023-02-28T18:29:42.064Z,8.55
2023-02-28T18:32:09.910Z,9.00
2023-02-28T18:34:38.588Z,8.82
2023-02-28T18:37:05.105Z,8.50
2023-02-28T18:39:32.337Z,7.72
2023-02-28T18:41:59.017Z,7.85
2023-02-28T18:44:25.448Z,7.65
2023-02-28T18:46:52.101Z,7.70
2023-02-28T18:49:19.265Z,7.18
2023-02-28T18:51:47.949Z,7.75
2023-02-28T18:54:16.320Z,6.95
2023-02-28T18:56:43.040Z,6.63
2023-02-28T18:59:11.360Z,6.07
2023-02-28T19:01:38.137Z,6.63
2023-02-28T19:04:05.397Z,6.65
2023-02-28T19:06:33.188Z,6.70
2023-02-28T19:09:02.094Z,7.93
2023-02-28T19:11:29.164Z,6.45
2023-02-28T19:13:57.256Z,6.35
2023-02-28T19:16:25.430Z,5.97
2023-02-28T19:18:54.738Z,7.07
2023-02-28T19:21:23.003Z,6.55
2023-02-28T19:23:49.648Z,6.00
2023-02-28T19:26:19.844Z,7.30
2023-02-28T19:28:46.709Z,6.68
2023-02-28T19:31:19.450Z,6.22
2023-02-28T19:33:46.217Z,6.32
2023-02-28T19:36:14.281Z,6.47
2023-02-28T19:38:41.724Z,7.13
2023-02-28T19:41:10.615Z,7.53
2023-02-28T19:43:37.418Z,7.18
2023-02-28T19:46:04.903Z,6.95
2023-02-28T19:48:32.717Z,7.28
2023-02-28T19:51:10.953Z,7.60
2023-02-28T19:53:40.177Z,8.60
2023-02-28T19:56:07.648Z,7.93
2023-02-28T19:58:34.957Z,8.57
2023-02-28T20:01:12.661Z,7.80
2023-02-28T20:03:39.224Z,7.43
2023-02-28T20:06:09.808Z,8.82
2023-02-28T20:08:37.471Z,7.82
2023-02-28T20:11:04.875Z,8.13
2023-02-28T20:13:31.640Z,8.32
2023-02-28T20:16:02.992Z,8.23
2023-02-28T20:18:30.543Z,8.50
2023-02-28T20:20:57.511Z,8.95
2023-02-28T20:23:24.396Z,9.38
2023-02-28T20:25:52.023Z,8.00
2023-02-28T20:28:19.689Z,8.57
2023-02-28T20:30:48.846Z,9.35
2023-02-28T20:33:19.380Z,8.38
2023-02-28T20:35:45.920Z,8.88
2023-02-28T20:38:13.427Z,9.57
2023-02-28T20:40:40.075Z,9.15
2023-02-28T20:43:06.924Z,8.90
2023-02-28T20:45:34.519Z,8.63
2023-02-28T20:48:01.371Z,8.82
2023-02-28T20:50:27.864Z,8.50
2023-02-28T20:52:54.309Z,9.40
2023-02-28T20:55:20.799Z,8.27
2023-02-28T20:57:47.467Z,9.85
2023-02-28T21:00:16.679Z,10.55
2023-02-28T21:02:43.275Z,11.63
2023-02-28T21:05:10.105Z,10.38
2023-02-28T21:07:36.606Z,9.57
2023-02-28T21:10:03.602Z,9.95
2023-02-28T21:12:30.172Z,8.93
2023-02-28T21:14:59.778Z,9.52
2023-02-28T21:17:26.322Z,9.70
2023-02-28T21:19:52.769Z,9.30
2023-02-28T21:22:19.258Z,10.95
2023-02-28T21:24:46.117Z,10.15
2023-02-28T21:27:13.661Z,10.00
2023-02-28T21:29:40.228Z,10.02
2023-02-28T21:32:07.580Z,10.13
2023-02-28T21:34:34.269Z,9.55
2023-02-28T21:37:00.859Z,11.23
2023-02-28T21:39:30.183Z,10.40
2023-02-28T21:42:04.286Z,10.20
2023-02-28T21:44:38.180Z,9.70
2023-02-28T21:47:05.427Z,9.68
2023-02-28T21:49:32.237Z,10.38
2023-02-28T21:52:01.832Z,11.82
2023-02-28T21:54:28.747Z,11.02
2023-02-28T21:56:55.437Z,11.10
2023-02-28T21:59:22.159Z,9.68
2023-02-28T22:01:51.084Z,10.27
2023-02-28T22:04:24.133Z,10.60
2023-02-28T22:06:57.422Z,12.15
2023-02-28T22:09:25.813Z,9.73
2023-02-28T22:11:52.363Z,11.15
2023-02-28T22:14:20.016Z,11.50
2023-02-28T22:16:52.412Z,9.63
2023-02-28T22:19:23.894Z,11.23
2023-02-28T22:21:51.636Z,11.00
2023-02-28T22:24:20.668Z,10.15
2023-02-28T22:26:49.134Z,10.23
2023-02-28T22:29:15.856Z,10.50
2023-02-28T22:31:42.557Z,9.88
2023-02-28T22:34:11.491Z,11.07
2023-02-28T22:36:39.945Z,11.27
2023-02-28T22:39:06.512Z,11.05
2023-02-28T22:41:34.241Z,10.48
2023-02-28T22:44:04.289Z,10.43
2023-02-28T22:46:33.263Z,10.07
2023-02-28T22:49:06.189Z,10.27
2023-02-28T22:51:35.152Z,10.65
2023-02-28T22:54:02.088Z,15.25
2023-02-28T22:56:32.894Z,12.32
2023-02-28T22:59:01.169Z,9.30
2023-02-28T23:01:31.163Z,9.48
2023-02-28T23:03:58.198Z,12.23
2023-02-28T23:06:29.429Z,10.13
2023-02-28T23:09:05.595Z,10.70
2023-02-28T23:11:35.090Z,10.07
2023-02-28T23:14:02.153Z,10.52
2023-02-28T23:16:30.933Z,11.27
2023-02-28T23:18:59.841Z,9.55
2023-02-28T23:21:27.556Z,10.75
2023-02-28T23:23:54.934Z,11.02
2023-02-28T23:26:21.432Z,10.63
2023-02-28T23:28:49.338Z,11.00
2023-02-28T23:31:16.185Z,10.65
2023-02-28T23:33:43.727Z,10.73
2023-02-28T23:36:12.344Z,11.65
2023-02-28T23:38:40.135Z,11.85
2023-02-28T23:41:10.528Z,10.23
2023-02-28T23:43:38.545Z,10.85
2023-02-28T23:46:05.159Z,11.63
2023-02-28T23:48:31.862Z,11.48
2023-02-28T23:51:09.645Z,13.27
2023-02-28T23:53:38.553Z,10.88
2023-02-28T23:56:06.799Z,10.98
2023-02-28T23:58:33.868Z,9.85
